sensor_id;sensor_type;location;lat;lon;timestamp;pressure;altitude;pressure_sealevel;temperature;humidity
61324;BME280;47203;48.428;11.974;2022-07-19T00:01:10;97325.63;;;21.88;39.43
61324;BME280;47203;48.428;11.974;2022-07-19T00:03:16;97321.69;;;21.85;39.76
61324;BME280;47203;48.428;11.974;2022-07-19T00:05:24;97326.59;;;21.83;39.59
61324;BME280;47203;48.428;11.974;2022-07-19T00:07:30;97323.75;;;21.79;40.13
61324;BME280;47203;48.428;11.974;2022-07-19T00:09:35;97320.94;;;21.76;39.87
61324;BME280;47203;48.428;11.974;2022-07-19T00:11:43;97329.63;;;21.73;39.91
61324;BME280;47203;48.428;11.974;2022-07-19T00:13:48;97329.63;;;21.73;40.26
61324;BME280;47203;48.428;11.974;2022-07-19T00:15:53;97326.03;;;21.69;40.11
61324;BME280;47203;48.428;11.974;2022-07-19T00:17:59;97320.50;;;21.65;40.41
61324;BME280;47203;48.428;11.974;2022-07-19T00:20:07;97321.78;;;21.59;40.44
61324;BME280;47203;48.428;11.974;2022-07-19T00:22:12;97319.75;;;21.56;40.28
61324;BME280;47203;48.428;11.974;2022-07-19T00:24:18;97318.50;;;21.53;40.61
61324;BME280;47203;48.428;11.974;2022-07-19T00:26:23;97321.78;;;21.50;40.89
61324;BME280;47203;48.428;11.974;2022-07-19T00:28:31;97311.56;;;21.43;40.99
61324;BME280;47203;48.428;11.974;2022-07-19T00:30:37;97323.09;;;21.44;40.68
61324;BME280;47203;48.428;11.974;2022-07-19T00:32:42;97319.47;;;21.40;40.98
61324;BME280;47203;48.428;11.974;2022-07-19T00:34:47;97315.84;;;21.36;40.68
61324;BME280;47203;48.428;11.974;2022-07-19T00:36:52;97318.72;;;21.31;40.66
61324;BME280;47203;48.428;11.974;2022-07-19T00:38:57;97319.66;;;21.26;40.89
61324;BME280;47203;48.428;11.974;2022-07-19T00:41:03;97319.06;;;21.20;41.04
61324;BME280;47203;48.428;11.974;2022-07-19T00:43:09;97320.81;;;21.16;41.15
61324;BME280;47203;48.428;11.974;2022-07-19T00:45:17;97316.72;;;21.10;41.28
61324;BME280;47203;48.428;11.974;2022-07-19T00:47:23;97326.94;;;21.08;41.29
61324;BME280;47203;48.428;11.974;2022-07-19T00:49:28;97326.50;;;21.06;41.69
61324;BME280;47203;48.428;11.974;2022-07-19T00:51:35;97317.06;;;21.00;41.38
61324;BME280;47203;48.428;11.974;2022-07-19T00:53:44;97316.13;;;20.96;41.38
61324;BME280;47203;48.428;11.974;2022-07-19T00:55:51;97312.81;;;20.90;41.67
61324;BME280;47203;48.428;11.974;2022-07-19T00:58:00;97306.06;;;20.84;41.61
61324;BME280;47203;48.428;11.974;2022-07-19T01:00:08;97303.84;;;20.77;41.71
61324;BME280;47203;48.428;11.974;2022-07-19T01:02:17;97307.78;;;20.71;41.54
61324;BME280;47203;48.428;11.974;2022-07-19T01:04:23;97303.84;;;20.68;41.67
61324;BME280;47203;48.428;11.974;2022-07-19T01:06:29;97311.44;;;20.66;41.70
61324;BME280;47203;48.428;11.974;2022-07-19T01:08:36;97310.13;;;20.64;41.75
61324;BME280;47203;48.428;11.974;2022-07-19T01:10:42;97315.47;;;20.64;41.57
61324;BME280;47203;48.428;11.974;2022-07-19T01:12:47;97308.53;;;20.63;41.70
61324;BME280;47203;48.428;11.974;2022-07-19T01:14:55;97317.53;;;20.58;42.08
61324;BME280;47203;48.428;11.974;2022-07-19T01:17:01;97313.75;;;20.59;42.18
61324;BME280;47203;48.428;11.974;2022-07-19T01:19:09;97317.06;;;20.56;42.06
61324;BME280;47203;48.428;11.974;2022-07-19T01:21:20;97316.88;;;20.52;42.25
61324;BME280;47203;48.428;11.974;2022-07-19T01:23:26;97319.25;;;20.54;42.00
61324;BME280;47203;48.428;11.974;2022-07-19T01:25:34;97324.44;;;20.50;42.49
61324;BME280;47203;48.428;11.974;2022-07-19T01:27:40;97333.56;;;20.49;42.48
61324;BME280;47203;48.428;11.974;2022-07-19T01:29:45;97333.56;;;20.49;42.29
61324;BME280;47203;48.428;11.974;2022-07-19T01:31:50;97334.34;;;20.50;42.74
61324;BME280;47203;48.428;11.974;2022-07-19T01:33:55;97329.31;;;20.48;42.58
61324;BME280;47203;48.428;11.974;2022-07-19T01:36:01;97331.50;;;20.46;42.86
61324;BME280;47203;48.428;11.974;2022-07-19T01:38:08;97331.03;;;20.44;43.28
61324;BME280;47203;48.428;11.974;2022-07-19T01:40:16;97329.28;;;20.39;43.12
61324;BME280;47203;48.428;11.974;2022-07-19T01:42:21;97334.50;;;20.36;42.68
61324;BME280;47203;48.428;11.974;2022-07-19T01:44:27;97329.28;;;20.31;42.79
61324;BME280;47203;48.428;11.974;2022-07-19T01:46:32;97324.72;;;20.22;43.07
61324;BME280;47203;48.428;11.974;2022-07-19T01:48:37;97328.94;;;20.15;43.00
61324;BME280;47203;48.428;11.974;2022-07-19T01:50:43;97323.25;;;20.08;43.23
61324;BME280;47203;48.428;11.974;2022-07-19T01:52:48;97320.75;;;20.02;43.09
61324;BME280;47203;48.428;11.974;2022-07-19T01:54:56;97317.91;;;19.99;43.30
61324;BME280;47203;48.428;11.974;2022-07-19T01:57:01;97318.72;;;19.99;43.06
61324;BME280;47203;48.428;11.974;2022-07-19T01:59:06;97314.44;;;19.98;43.44
61324;BME280;47203;48.428;11.974;2022-07-19T02:01:11;97313.69;;;19.98;43.51
61324;BME280;47203;48.428;11.974;2022-07-19T02:03:17;97312.56;;;19.99;43.54
61324;BME280;47203;48.428;11.974;2022-07-19T02:05:23;97311.78;;;19.98;43.06
61324;BME280;47203;48.428;11.974;2022-07-19T02:07:28;97311.78;;;19.98;43.14
61324;BME280;47203;48.428;11.974;2022-07-19T02:09:34;97303.31;;;19.96;43.31
61324;BME280;47203;48.428;11.974;2022-07-19T02:11:42;97310.34;;;19.92;43.76
61324;BME280;47203;48.428;11.974;2022-07-19T02:13:47;97303.13;;;19.93;43.81
61324;BME280;47203;48.428;11.974;2022-07-19T02:15:53;97298.09;;;19.91;43.75
61324;BME280;47203;48.428;11.974;2022-07-19T02:17:58;97289.31;;;19.91;43.61
61324;BME280;47203;48.428;11.974;2022-07-19T02:20:06;97297.13;;;19.87;43.49
61324;BME280;47203;48.428;11.974;2022-07-19T02:22:11;97287.56;;;19.86;43.73
61324;BME280;47203;48.428;11.974;2022-07-19T02:24:17;97287.88;;;19.84;43.52
61324;BME280;47203;48.428;11.974;2022-07-19T02:26:23;97288.78;;;19.80;43.79
61324;BME280;47203;48.428;11.974;2022-07-19T02:28:31;97277.91;;;19.76;44.01
61324;BME280;47203;48.428;11.974;2022-07-19T02:30:36;97281.66;;;19.75;43.78
61324;BME280;47203;48.428;11.974;2022-07-19T02:32:42;97278.22;;;19.75;43.82
61324;BME280;47203;48.428;11.974;2022-07-19T02:34:47;97277.72;;;19.73;44.05
61324;BME280;47203;48.428;11.974;2022-07-19T02:36:53;97273.81;;;19.70;43.98
61324;BME280;47203;48.428;11.974;2022-07-19T02:38:58;97280.56;;;19.67;44.12
61324;BME280;47203;48.428;11.974;2022-07-19T02:41:04;97280.88;;;19.66;44.10
61324;BME280;47203;48.428;11.974;2022-07-19T02:43:10;97268.59;;;19.65;44.23
61324;BME280;47203;48.428;11.974;2022-07-19T02:45:18;97271.13;;;19.61;44.51
61324;BME280;47203;48.428;11.974;2022-07-19T02:47:24;97279.13;;;19.61;44.37
61324;BME280;47203;48.428;11.974;2022-07-19T02:49:29;97278.63;;;19.59;44.44
61324;BME280;47203;48.428;11.974;2022-07-19T02:51:34;97272.34;;;19.55;44.34
61324;BME280;47203;48.428;11.974;2022-07-19T02:53:39;97283.63;;;19.52;44.28
61324;BME280;47203;48.428;11.974;2022-07-19T02:55:45;97287.72;;;19.49;44.44
61324;BME280;47203;48.428;11.974;2022-07-19T02:57:50;97288.31;;;19.46;44.51
61324;BME280;47203;48.428;11.974;2022-07-19T02:59:55;97288.16;;;19.43;44.69
61324;BME280;47203;48.428;11.974;2022-07-19T03:02:03;97283.56;;;19.34;44.53
61324;BME280;47203;48.428;11.974;2022-07-19T03:04:08;97283.09;;;19.32;44.42
61324;BME280;47203;48.428;11.974;2022-07-19T03:06:16;97292.03;;;19.28;44.80
61324;BME280;47203;48.428;11.974;2022-07-19T03:08:22;97291.53;;;19.26;44.97
61324;BME280;47203;48.428;11.974;2022-07-19T03:10:27;97285.53;;;19.20;44.98
61324;BME280;47203;48.428;11.974;2022-07-19T03:12:33;97290.69;;;19.16;45.01
61324;BME280;47203;48.428;11.974;2022-07-19T03:14:38;97295.88;;;19.13;45.22
61324;BME280;47203;48.428;11.974;2022-07-19T03:16:43;97286.28;;;19.12;45.58
61324;BME280;47203;48.428;11.974;2022-07-19T03:18:51;97288.75;;;19.08;45.45
61324;BME280;47203;48.428;11.974;2022-07-19T03:20:56;97287.97;;;19.08;45.71
61324;BME280;47203;48.428;11.974;2022-07-19T03:23:02;97282.19;;;19.06;45.29
61324;BME280;47203;48.428;11.974;2022-07-19T03:25:08;97285.16;;;19.04;45.47
61324;BME280;47203;48.428;11.974;2022-07-19T03:27:13;97279.81;;;19.04;45.72
61324;BME280;47203;48.428;11.974;2022-07-19T03:29:19;97283.25;;;19.05;45.47
61324;BME280;47203;48.428;11.974;2022-07-19T03:31:30;97280.91;;;19.03;45.80
61324;BME280;47203;48.428;11.974;2022-07-19T03:33:36;97282.59;;;18.99;45.91
61324;BME280;47203;48.428;11.974;2022-07-19T03:35:46;97281.94;;;18.93;46.00
61324;BME280;47203;48.428;11.974;2022-07-19T03:37:51;97281.94;;;18.93;45.87
61324;BME280;47203;48.428;11.974;2022-07-19T03:39:56;97283.81;;;18.93;45.91
61324;BME280;47203;48.428;11.974;2022-07-19T03:42:02;97277.38;;;18.94;45.87
61324;BME280;47203;48.428;11.974;2022-07-19T03:44:07;97279.78;;;18.95;45.64
61324;BME280;47203;48.428;11.974;2022-07-19T03:46:12;97279.78;;;18.95;45.80
61324;BME280;47203;48.428;11.974;2022-07-19T03:48:18;97282.91;;;18.97;45.77
61324;BME280;47203;48.428;11.974;2022-07-19T03:50:23;97284.19;;;19.00;46.04
61324;BME280;47203;48.428;11.974;2022-07-19T03:52:31;97291.06;;;19.01;45.63
61324;BME280;47203;48.428;11.974;2022-07-19T03:54:37;97290.66;;;19.08;45.66
61324;BME280;47203;48.428;11.974;2022-07-19T03:56:42;97291.13;;;19.10;45.93
61324;BME280;47203;48.428;11.974;2022-07-19T03:58:48;97295.88;;;19.13;45.95
61324;BME280;47203;48.428;11.974;2022-07-19T04:00:53;97295.25;;;19.16;46.08
61324;BME280;47203;48.428;11.974;2022-07-19T04:02:58;97299.97;;;19.19;45.85
61324;BME280;47203;48.428;11.974;2022-07-19T04:05:06;97306.88;;;19.20;45.93
61324;BME280;47203;48.428;11.974;2022-07-19T04:07:11;97304.22;;;19.20;45.90
61324;BME280;47203;48.428;11.974;2022-07-19T04:09:19;97300.75;;;19.19;46.04
61324;BME280;47203;48.428;11.974;2022-07-19T04:11:24;97299.69;;;19.21;46.04
61324;BME280;47203;48.428;11.974;2022-07-19T04:13:31;97305.00;;;19.21;45.78
61324;BME280;47203;48.428;11.974;2022-07-19T04:15:37;97309.84;;;19.18;46.23
61324;BME280;47203;48.428;11.974;2022-07-19T04:17:48;97303.06;;;19.12;46.11
61324;BME280;47203;48.428;11.974;2022-07-19T04:19:53;97318.41;;;19.07;46.47
61324;BME280;47203;48.428;11.974;2022-07-19T04:21:58;97326.25;;;19.03;46.66
61324;BME280;47203;48.428;11.974;2022-07-19T04:24:04;97326.25;;;19.03;46.53
61324;BME280;47203;48.428;11.974;2022-07-19T04:26:15;97320.63;;;19.05;46.59
61324;BME280;47203;48.428;11.974;2022-07-19T04:28:20;97323.94;;;19.10;46.90
61324;BME280;47203;48.428;11.974;2022-07-19T04:30:25;97319.59;;;19.14;46.67
61324;BME280;47203;48.428;11.974;2022-07-19T04:32:31;97318.97;;;19.17;46.62
61324;BME280;47203;48.428;11.974;2022-07-19T04:34:36;97319.13;;;19.21;46.71
61324;BME280;47203;48.428;11.974;2022-07-19T04:36:42;97318.53;;;19.24;46.58
61324;BME280;47203;48.428;11.974;2022-07-19T04:38:47;97321.06;;;19.29;46.84
61324;BME280;47203;48.428;11.974;2022-07-19T04:40:52;97316.09;;;19.36;46.74
61324;BME280;47203;48.428;11.974;2022-07-19T04:43:04;97315.47;;;19.40;46.93
61324;BME280;47203;48.428;11.974;2022-07-19T04:45:10;97314.22;;;19.46;46.75
61324;BME280;47203;48.428;11.974;2022-07-19T04:47:16;97322.91;;;19.51;46.83
61324;BME280;47203;48.428;11.974;2022-07-19T04:49:21;97313.19;;;19.56;46.63
61324;BME280;47203;48.428;11.974;2022-07-19T04:51:27;97322.31;;;19.63;46.51
61324;BME280;47203;48.428;11.974;2022-07-19T04:53:32;97322.66;;;19.70;46.66
61324;BME280;47203;48.428;11.974;2022-07-19T04:55:41;97327.75;;;19.81;46.74
61324;BME280;47203;48.428;11.974;2022-07-19T04:57:46;97325.88;;;19.90;46.57
61324;BME280;47203;48.428;11.974;2022-07-19T04:59:54;97311.00;;;19.98;46.73
61324;BME280;47203;48.428;11.974;2022-07-19T05:01:59;97314.16;;;20.09;46.90
61324;BME280;47203;48.428;11.974;2022-07-19T05:04:05;97320.78;;;20.20;46.85
61324;BME280;47203;48.428;11.974;2022-07-19T05:06:10;97315.13;;;20.30;46.51
61324;BME280;47203;48.428;11.974;2022-07-19T05:08:15;97314.06;;;20.40;46.85
61324;BME280;47203;48.428;11.974;2022-07-19T05:10:20;97316.75;;;20.49;46.58
61324;BME280;47203;48.428;11.974;2022-07-19T05:12:26;97317.53;;;20.58;46.23
61324;BME280;47203;48.428;11.974;2022-07-19T05:14:31;97313.78;;;20.68;46.52
61324;BME280;47203;48.428;11.974;2022-07-19T05:16:39;97312.19;;;20.75;46.54
61324;BME280;47203;48.428;11.974;2022-07-19T05:18:44;97319.91;;;20.86;46.52
61324;BME280;47203;48.428;11.974;2022-07-19T05:20:50;97324.47;;;20.94;46.21
61324;BME280;47203;48.428;11.974;2022-07-19T05:22:55;97326.00;;;21.04;46.18
61324;BME280;47203;48.428;11.974;2022-07-19T05:25:00;97324.91;;;21.14;45.80
61324;BME280;47203;48.428;11.974;2022-07-19T05:27:05;97322.50;;;21.21;46.38
61324;BME280;47203;48.428;11.974;2022-07-19T05:29:11;97325.16;;;21.30;46.26
61324;BME280;47203;48.428;11.974;2022-07-19T05:31:16;97317.44;;;21.37;46.17
61324;BME280;47203;48.428;11.974;2022-07-19T05:33:26;97316.63;;;21.45;46.04
61324;BME280;47203;48.428;11.974;2022-07-19T05:35:32;97306.69;;;21.54;45.69
61324;BME280;47203;48.428;11.974;2022-07-19T05:37:37;97315.16;;;21.65;45.46
61324;BME280;47203;48.428;11.974;2022-07-19T05:39:42;97315.59;;;21.76;45.59
61324;BME280;47203;48.428;11.974;2022-07-19T05:41:48;97314.09;;;21.87;45.63
61324;BME280;47203;48.428;11.974;2022-07-19T05:43:53;97311.84;;;21.98;45.62
61324;BME280;47203;48.428;11.974;2022-07-19T05:45:58;97314.94;;;22.09;45.27
61324;BME280;47203;48.428;11.974;2022-07-19T05:48:04;97310.00;;;22.20;45.37
61324;BME280;47203;48.428;11.974;2022-07-19T05:50:12;97301.56;;;22.30;45.24
61324;BME280;47203;48.428;11.974;2022-07-19T05:52:18;97306.22;;;22.42;45.02
61324;BME280;47203;48.428;11.974;2022-07-19T05:54:27;97305.84;;;22.52;45.22
61324;BME280;47203;48.428;11.974;2022-07-19T05:56:33;97302.75;;;22.62;44.96
61324;BME280;47203;48.428;11.974;2022-07-19T05:58:39;97297.75;;;22.73;45.38
61324;BME280;47203;48.428;11.974;2022-07-19T06:00:45;97302.38;;;22.85;45.09
61324;BME280;47203;48.428;11.974;2022-07-19T06:03:04;97304.03;;;22.98;45.05
61324;BME280;47203;48.428;11.974;2022-07-19T06:05:12;97305.16;;;23.10;44.42
61324;BME280;47203;48.428;11.974;2022-07-19T06:07:18;97303.31;;;23.23;44.66
61324;BME280;47203;48.428;11.974;2022-07-19T06:09:23;97301.88;;;23.38;44.31
61324;BME280;47203;48.428;11.974;2022-07-19T06:11:29;97311.22;;;23.52;44.63
61324;BME280;47203;48.428;11.974;2022-07-19T06:13:35;97303.91;;;23.65;43.87
61324;BME280;47203;48.428;11.974;2022-07-19T06:15:40;97301.69;;;23.80;43.52
61324;BME280;47203;48.428;11.974;2022-07-19T06:17:47;97301.72;;;23.92;43.83
61324;BME280;47203;48.428;11.974;2022-07-19T06:19:52;97303.69;;;24.08;43.01
61324;BME280;47203;48.428;11.974;2022-07-19T06:22:00;97307.84;;;24.17;43.25
61324;BME280;47203;48.428;11.974;2022-07-19T06:24:06;97310.97;;;24.32;42.70
61324;BME280;47203;48.428;11.974;2022-07-19T06:26:12;97302.50;;;24.46;42.79
61324;BME280;47203;48.428;11.974;2022-07-19T06:28:18;97306.78;;;24.59;42.36
61324;BME280;47203;48.428;11.974;2022-07-19T06:30:23;97307.50;;;24.72;42.37
61324;BME280;47203;48.428;11.974;2022-07-19T06:32:29;97310.91;;;24.85;42.43
61324;BME280;47203;48.428;11.974;2022-07-19T06:34:34;97305.91;;;24.99;41.94
61324;BME280;47203;48.428;11.974;2022-07-19T06:36:40;97309.00;;;25.14;41.48
61324;BME280;47203;48.428;11.974;2022-07-19T06:38:48;97310.41;;;25.23;41.56
61324;BME280;47203;48.428;11.974;2022-07-19T06:40:53;97306.53;;;25.37;41.29
61324;BME280;47203;48.428;11.974;2022-07-19T06:42:59;97307.59;;;25.48;40.65
61324;BME280;47203;48.428;11.974;2022-07-19T06:45:05;97312.53;;;25.62;40.60
61324;BME280;47203;48.428;11.974;2022-07-19T06:47:11;97309.81;;;25.78;40.52
61324;BME280;47203;48.428;11.974;2022-07-19T06:49:16;97300.94;;;25.93;40.71
61324;BME280;47203;48.428;11.974;2022-07-19T06:51:21;97303.63;;;26.09;40.04
61324;BME280;47203;48.428;11.974;2022-07-19T06:53:27;97297.41;;;26.25;39.43
61324;BME280;47203;48.428;11.974;2022-07-19T06:55:35;97303.28;;;26.30;39.53
61324;BME280;47203;48.428;11.974;2022-07-19T06:57:41;97300.09;;;26.44;39.25
61324;BME280;47203;48.428;11.974;2022-07-19T06:59:46;97290.41;;;26.59;38.89
61324;BME280;47203;48.428;11.974;2022-07-19T07:01:51;97299.16;;;26.72;38.56
61324;BME280;47203;48.428;11.974;2022-07-19T07:03:57;97296.25;;;26.81;38.08
61324;BME280;47203;48.428;11.974;2022-07-19T07:06:03;97302.97;;;26.91;38.06
61324;BME280;47203;48.428;11.974;2022-07-19T07:08:08;97309.34;;;27.02;37.66
61324;BME280;47203;48.428;11.974;2022-07-19T07:10:13;97308.41;;;27.14;37.94
61324;BME280;47203;48.428;11.974;2022-07-19T07:12:21;97310.16;;;27.26;37.42
61324;BME280;47203;48.428;11.974;2022-07-19T07:14:27;97307.72;;;27.40;37.40
61324;BME280;47203;48.428;11.974;2022-07-19T07:16:33;97309.09;;;27.54;36.77
61324;BME280;47203;48.428;11.974;2022-07-19T07:18:38;97305.50;;;27.69;36.75
61324;BME280;47203;48.428;11.974;2022-07-19T07:20:44;97307.25;;;27.84;36.34
61324;BME280;47203;48.428;11.974;2022-07-19T07:22:49;97310.50;;;27.94;36.83
61324;BME280;47203;48.428;11.974;2022-07-19T07:24:54;97316.91;;;28.09;36.59
61324;BME280;47203;48.428;11.974;2022-07-19T07:27:00;97307.13;;;28.27;36.53
61324;BME280;47203;48.428;11.974;2022-07-19T07:29:08;97301.91;;;28.42;35.85
61324;BME280;47203;48.428;11.974;2022-07-19T07:31:13;97297.47;;;28.60;35.94
61324;BME280;47203;48.428;11.974;2022-07-19T07:33:19;97303.44;;;28.73;35.32
61324;BME280;47203;48.428;11.974;2022-07-19T07:35:24;97297.38;;;28.83;34.54
61324;BME280;47203;48.428;11.974;2022-07-19T07:37:29;97296.28;;;28.92;34.59
61324;BME280;47203;48.428;11.974;2022-07-19T07:39:35;97297.16;;;29.03;34.30
61324;BME280;47203;48.428;11.974;2022-07-19T07:41:40;97295.69;;;29.09;33.96
61324;BME280;47203;48.428;11.974;2022-07-19T07:43:59;97296.53;;;29.17;34.52
61324;BME280;47203;48.428;11.974;2022-07-19T07:46:07;97289.69;;;29.27;33.94
61324;BME280;47203;48.428;11.974;2022-07-19T07:48:12;97290.97;;;29.40;33.73
61324;BME280;47203;48.428;11.974;2022-07-19T07:50:17;97291.84;;;29.51;33.43
61324;BME280;47203;48.428;11.974;2022-07-19T07:52:23;97301.25;;;29.65;33.18
61324;BME280;47203;48.428;11.974;2022-07-19T07:54:28;97293.53;;;29.74;32.88
61324;BME280;47203;48.428;11.974;2022-07-19T07:56:33;97292.41;;;29.78;32.45
61324;BME280;47203;48.428;11.974;2022-07-19T07:58:39;97292.09;;;29.87;32.45
61324;BME280;47203;48.428;11.974;2022-07-19T08:00:44;97294.16;;;30.01;31.93
61324;BME280;47203;48.428;11.974;2022-07-19T08:02:52;97289.91;;;30.07;31.81
61324;BME280;47203;48.428;11.974;2022-07-19T08:04:58;97285.31;;;30.19;31.50
61324;BME280;47203;48.428;11.974;2022-07-19T08:07:03;97278.75;;;30.23;31.48
61324;BME280;47203;48.428;11.974;2022-07-19T08:09:08;97288.88;;;30.30;31.55
61324;BME280;47203;48.428;11.974;2022-07-19T08:11:13;97285.84;;;30.42;31.03
61324;BME280;47203;48.428;11.974;2022-07-19T08:13:19;97290.53;;;30.49;30.98
61324;BME280;47203;48.428;11.974;2022-07-19T08:15:24;97284.34;;;30.56;30.73
61324;BME280;47203;48.428;11.974;2022-07-19T08:17:30;97278.16;;;30.62;30.57
61324;BME280;47203;48.428;11.974;2022-07-19T08:19:40;97275.47;;;30.73;30.93
61324;BME280;47203;48.428;11.974;2022-07-19T08:21:45;97277.84;;;30.89;30.36
61324;BME280;47203;48.428;11.974;2022-07-19T08:23:50;97283.31;;;31.00;30.43
61324;BME280;47203;48.428;11.974;2022-07-19T08:25:56;97275.56;;;31.09;30.02
61324;BME280;47203;48.428;11.974;2022-07-19T08:28:01;97278.28;;;31.20;29.85
61324;BME280;47203;48.428;11.974;2022-07-19T08:30:09;97280.63;;;31.29;29.40
61324;BME280;47203;48.428;11.974;2022-07-19T08:32:14;97279.84;;;31.39;29.59
61324;BME280;47203;48.428;11.974;2022-07-19T08:34:20;97281.78;;;31.49;29.33
61324;BME280;47203;48.428;11.974;2022-07-19T08:36:28;97281.06;;;31.56;28.81
61324;BME280;47203;48.428;11.974;2022-07-19T08:38:33;97269.38;;;31.66;28.79
61324;BME280;47203;48.428;11.974;2022-07-19T08:40:42;97274.41;;;31.72;28.54
61324;BME280;47203;48.428;11.974;2022-07-19T08:42:48;97277.53;;;31.77;28.71
61324;BME280;47203;48.428;11.974;2022-07-19T08:44:56;97275.19;;;31.87;28.13
61324;BME280;47203;48.428;11.974;2022-07-19T08:47:05;97277.09;;;31.97;27.68
61324;BME280;47203;48.428;11.974;2022-07-19T08:49:11;97272.41;;;32.05;27.39
61324;BME280;47203;48.428;11.974;2022-07-19T08:51:20;97278.25;;;32.10;26.62
61324;BME280;47203;48.428;11.974;2022-07-19T08:53:32;97272.41;;;32.15;26.43
61324;BME280;47203;48.428;11.974;2022-07-19T08:55:40;97271.59;;;32.29;26.11
61324;BME280;47203;48.428;11.974;2022-07-19T08:57:45;97266.88;;;32.41;27.03
61324;BME280;47203;48.428;11.974;2022-07-19T09:00:00;97265.25;;;32.50;26.23
61324;BME280;47203;48.428;11.974;2022-07-19T09:02:06;97267.19;;;32.57;25.93
61324;BME280;47203;48.428;11.974;2022-07-19T09:04:14;97271.84;;;32.64;25.90
61324;BME280;47203;48.428;11.974;2022-07-19T09:06:20;97272.59;;;32.68;25.21
61324;BME280;47203;48.428;11.974;2022-07-19T09:08:25;97269.09;;;32.67;25.26
61324;BME280;47203;48.428;11.974;2022-07-19T09:10:36;97268.72;;;32.65;25.66
61324;BME280;47203;48.428;11.974;2022-07-19T09:13:00;97264.75;;;32.81;26.33
61324;BME280;47203;48.428;11.974;2022-07-19T09:15:07;97265.00;;;33.01;26.11
61324;BME280;47203;48.428;11.974;2022-07-19T09:17:13;97267.59;;;33.19;25.50
61324;BME280;47203;48.428;11.974;2022-07-19T09:19:21;97253.94;;;33.30;24.70
61324;BME280;47203;48.428;11.974;2022-07-19T09:21:27;97250.41;;;33.33;25.10
61324;BME280;47203;48.428;11.974;2022-07-19T09:23:34;97246.50;;;33.34;24.73
61324;BME280;47203;48.428;11.974;2022-07-19T09:25:44;97241.00;;;33.37;24.42
61324;BME280;47203;48.428;11.974;2022-07-19T09:27:57;97248.34;;;33.44;24.37
61324;BME280;47203;48.428;11.974;2022-07-19T09:30:02;97247.03;;;33.60;24.65
61324;BME280;47203;48.428;11.974;2022-07-19T09:32:11;97255.13;;;33.70;24.10
61324;BME280;47203;48.428;11.974;2022-07-19T09:34:27;97240.69;;;33.70;24.09
61324;BME280;47203;48.428;11.974;2022-07-19T09:36:32;97249.28;;;33.68;23.18
61324;BME280;47203;48.428;11.974;2022-07-19T09:38:37;97245.44;;;33.62;23.41
61324;BME280;47203;48.428;11.974;2022-07-19T09:40:48;97245.84;;;33.61;23.72
61324;BME280;47203;48.428;11.974;2022-07-19T09:42:54;97243.41;;;33.73;23.69
61324;BME280;47203;48.428;11.974;2022-07-19T09:45:03;97244.88;;;33.82;23.25
61324;BME280;47203;48.428;11.974;2022-07-19T09:47:08;97233.06;;;33.92;23.07
61324;BME280;47203;48.428;11.974;2022-07-19T09:49:16;97239.69;;;33.95;22.40
61324;BME280;47203;48.428;11.974;2022-07-19T09:51:22;97236.94;;;33.98;22.16
61324;BME280;47203;48.428;11.974;2022-07-19T09:53:27;97240.00;;;34.00;22.76
61324;BME280;47203;48.428;11.974;2022-07-19T09:55:33;97232.19;;;34.02;22.35
61324;BME280;47203;48.428;11.974;2022-07-19T09:57:44;97230.59;;;34.05;22.63
61324;BME280;47203;48.428;11.974;2022-07-19T09:59:52;97236.31;;;34.18;22.58
61324;BME280;47203;48.428;11.974;2022-07-19T10:01:59;97229.94;;;34.32;22.59
61324;BME280;47203;48.428;11.974;2022-07-19T10:04:08;97227.06;;;34.39;21.73
61324;BME280;47203;48.428;11.974;2022-07-19T10:06:14;97221.91;;;34.48;21.75
61324;BME280;47203;48.428;11.974;2022-07-19T10:08:20;97222.22;;;34.54;21.60
61324;BME280;47203;48.428;11.974;2022-07-19T10:10:26;97224.47;;;34.59;21.73
61324;BME280;47203;48.428;11.974;2022-07-19T10:12:33;97229.50;;;34.64;21.39
61324;BME280;47203;48.428;11.974;2022-07-19T10:14:42;97214.16;;;34.70;21.97
61324;BME280;47203;48.428;11.974;2022-07-19T10:17:26;97213.00;;;34.71;22.33
61324;BME280;47203;48.428;11.974;2022-07-19T10:19:38;97206.28;;;34.76;21.73
61324;BME280;47203;48.428;11.974;2022-07-19T10:21:46;97218.28;;;34.86;21.10
61324;BME280;47203;48.428;11.974;2022-07-19T10:23:53;97213.09;;;34.91;20.81
61324;BME280;47203;48.428;11.974;2022-07-19T10:25:59;97210.72;;;34.93;20.54
61324;BME280;47203;48.428;11.974;2022-07-19T10:28:04;97214.59;;;34.96;21.00
61324;BME280;47203;48.428;11.974;2022-07-19T10:30:25;97207.16;;;34.96;21.07
61324;BME280;47203;48.428;11.974;2022-07-19T10:32:31;97207.78;;;35.08;21.01
61324;BME280;47203;48.428;11.974;2022-07-19T10:34:38;97214.66;;;35.16;21.28
61324;BME280;47203;48.428;11.974;2022-07-19T10:36:45;97205.91;;;35.25;21.28
61324;BME280;47203;48.428;11.974;2022-07-19T10:39:23;97199.75;;;35.21;20.96
61324;BME280;47203;48.428;11.974;2022-07-19T10:41:34;97211.28;;;35.32;21.20
61324;BME280;47203;48.428;11.974;2022-07-19T10:44:07;97206.19;;;35.34;20.90
61324;BME280;47203;48.428;11.974;2022-07-19T10:46:15;97205.28;;;35.41;20.73
61324;BME280;47203;48.428;11.974;2022-07-19T10:48:20;97202.28;;;35.55;20.73
61324;BME280;47203;48.428;11.974;2022-07-19T10:50:57;97198.94;;;35.68;20.68
61324;BME280;47203;48.428;11.974;2022-07-19T10:53:03;97200.31;;;35.79;19.67
61324;BME280;47203;48.428;11.974;2022-07-19T10:55:26;97203.41;;;35.81;19.79
61324;BME280;47203;48.428;11.974;2022-07-19T10:57:36;97197.16;;;35.81;19.58
61324;BME280;47203;48.428;11.974;2022-07-19T10:59:43;97200.50;;;35.89;19.65
61324;BME280;47203;48.428;11.974;2022-07-19T11:01:57;97202.06;;;35.90;19.34
61324;BME280;47203;48.428;11.974;2022-07-19T11:04:27;97191.88;;;35.90;19.41